createdAt,value
2022-12-13T00:01:30.816Z,101595.84
2022-12-13T00:03:59.109Z,101588.03
2022-12-13T00:06:26.439Z,101549.97
2022-12-13T00:08:53.395Z,101572.44
2022-12-13T00:11:20.442Z,101589.72
2022-12-13T00:13:50.146Z,101581.91
2022-12-13T00:16:19.680Z,101588.81
2022-12-13T00:18:48.052Z,101586.22
2022-12-13T00:21:18.327Z,101579.31
2022-12-13T00:23:45.752Z,101586.25
2022-12-13T00:26:15.302Z,101581.03
2022-12-13T00:28:42.074Z,101591.41
2022-12-13T00:31:51.243Z,101590.50
2022-12-13T00:33:56.051Z,101582.75
2022-12-13T00:36:22.570Z,101580.22
2022-12-13T00:39:00.409Z,101578.47
2022-12-13T00:41:33.814Z,101575.88
2022-12-13T00:44:01.556Z,101568.09
2022-12-13T00:46:29.390Z,101536.03
2022-12-13T00:48:58.788Z,101556.84
2022-12-13T00:51:26.823Z,101572.38
2022-12-13T00:53:53.504Z,101529.97
2022-12-13T00:56:23.519Z,101543.81
2022-12-13T00:58:52.441Z,101566.31
2022-12-13T01:01:24.921Z,101549.91
2022-12-13T01:03:53.887Z,101550.72
2022-12-13T01:06:31.177Z,101543.81
2022-12-13T01:08:57.750Z,101551.66
2022-12-13T01:11:24.213Z,101545.59
2022-12-13T01:13:50.654Z,101530.84
2022-12-13T01:16:19.064Z,101564.59
2022-12-13T01:18:45.963Z,101552.53
2022-12-13T01:21:15.199Z,101560.31
2022-12-13T01:23:42.972Z,101568.03
2022-12-13T01:26:12.672Z,101559.41
2022-12-13T01:28:39.377Z,101561.13
2022-12-13T01:31:08.966Z,101556.81
2022-12-13T01:33:36.028Z,101553.34
2022-12-13T01:36:05.079Z,101543.75
2022-12-13T01:38:32.376Z,101554.13
2022-12-13T01:41:16.851Z,101569.69
2022-12-13T01:43:44.298Z,101566.28
2022-12-13T01:46:12.821Z,101537.72
2022-12-13T01:48:44.350Z,101553.25
2022-12-13T01:51:15.342Z,101550.66
2022-12-13T01:53:43.691Z,101550.75
2022-12-13T01:56:23.319Z,101538.47
2022-12-13T01:58:54.393Z,101551.44
2022-12-13T02:01:21.800Z,101564.41
2022-12-13T02:03:48.454Z,101537.66
2022-12-13T02:06:25.723Z,101540.22
2022-12-13T02:08:52.185Z,101547.97
2022-12-13T02:11:20.915Z,101547.97
2022-12-13T02:13:47.341Z,101542.75
2022-12-13T02:16:57.574Z,101533.25
2022-12-13T02:19:39.263Z,101560.03
2022-12-13T02:22:36.823Z,101555.72
2022-12-13T02:25:39.073Z,101559.16
2022-12-13T02:28:36.911Z,101533.19
2022-12-13T02:31:12.855Z,101559.97
2022-12-13T02:34:00.523Z,101539.19
2022-12-13T02:36:37.338Z,101510.56
2022-12-13T02:39:16.474Z,101546.06
2022-12-13T02:42:31.129Z,101558.19
2022-12-13T02:45:13.393Z,101560.75
2022-12-13T02:47:44.973Z,101525.34
2022-12-13T02:50:14.692Z,101538.31
2022-12-13T02:52:43.171Z,101554.75
2022-12-13T02:55:14.949Z,101546.09
2022-12-13T02:57:45.021Z,101517.53
2022-12-13T03:00:17.585Z,101547.78
2022-12-13T03:03:22.194Z,101541.75
2022-12-13T03:06:21.126Z,101537.41
2022-12-13T03:09:09.002Z,101529.56
2022-12-13T03:12:24.093Z,101514.81
2022-12-13T03:15:19.652Z,101539.94
2022-12-13T03:17:52.254Z,101537.38
2022-12-13T03:20:23.946Z,101516.53
2022-12-13T03:22:54.329Z,101523.41
2022-12-13T03:25:31.034Z,101513.00
2022-12-13T03:28:01.336Z,101506.94
2022-12-13T03:30:30.483Z,101534.63
2022-12-13T03:32:56.957Z,101530.31
2022-12-13T03:35:23.628Z,101532.06
2022-12-13T03:37:51.086Z,101536.47
2022-12-13T03:40:19.674Z,101489.72
2022-12-13T03:42:47.306Z,101512.22
2022-12-13T03:45:14.148Z,101520.91
2022-12-13T03:47:40.790Z,101489.75
2022-12-13T03:50:26.418Z,101520.91
2022-12-13T03:53:01.566Z,101538.19
2022-12-13T03:55:28.723Z,101539.94
2022-12-13T03:57:55.640Z,101527.03
2022-12-13T04:00:22.175Z,101510.50
2022-12-13T04:02:49.714Z,101528.66
2022-12-13T04:05:16.476Z,101523.56
2022-12-13T04:07:48.554Z,101495.00
2022-12-13T04:10:26.343Z,101519.19
2022-12-13T04:13:12.607Z,101518.25
2022-12-13T04:15:39.641Z,101514.81
2022-12-13T04:18:06.217Z,101513.94
2022-12-13T04:20:32.654Z,101497.50
2022-12-13T04:22:59.195Z,101487.97
2022-12-13T04:25:25.782Z,101484.53
2022-12-13T04:27:52.197Z,101503.47
2022-12-13T04:30:18.649Z,101472.31
2022-12-13T04:32:45.084Z,101491.34
2022-12-13T04:35:11.509Z,101504.31
2022-12-13T04:37:37.946Z,101514.66
2022-12-13T04:40:05.356Z,101514.66
2022-12-13T04:42:31.833Z,101518.97
2022-12-13T04:44:58.324Z,101480.97
2022-12-13T04:47:24.771Z,101506.84
2022-12-13T04:49:51.182Z,101499.03
2022-12-13T04:52:21.977Z,101493.06
2022-12-13T04:54:55.237Z,101498.28
2022-12-13T04:57:22.577Z,101484.47
2022-12-13T04:59:49.169Z,101475.84
2022-12-13T05:02:23.364Z,101487.94
2022-12-13T05:04:53.771Z,101492.28
2022-12-13T05:07:21.441Z,101483.69
2022-12-13T05:09:47.849Z,101488.91
2022-12-13T05:12:22.437Z,101459.56
2022-12-13T05:14:49.321Z,101486.41
2022-12-13T05:17:15.750Z,101472.53
2022-12-13T05:19:45.322Z,101470.81
2022-12-13T05:22:20.831Z,101473.44
2022-12-13T05:24:48.332Z,101494.22
2022-12-13T05:27:24.640Z,101460.50
2022-12-13T05:30:03.101Z,101492.47
2022-12-13T05:32:43.231Z,101464.88
2022-12-13T05:35:23.000Z,101466.59
2022-12-13T05:37:54.035Z,101464.03
2022-12-13T05:40:23.144Z,101459.69
2022-12-13T05:42:49.882Z,101483.88
2022-12-13T05:45:18.904Z,101411.28
2022-12-13T05:47:46.222Z,101463.22
2022-12-13T05:50:14.791Z,101442.44
2022-12-13T05:52:42.750Z,101472.69
2022-12-13T05:55:10.649Z,101467.44
2022-12-13T05:57:37.645Z,101460.53
2022-12-13T06:00:06.974Z,101447.50
2022-12-13T06:02:53.553Z,101463.06
2022-12-13T06:05:20.243Z,101468.28
2022-12-13T06:07:46.786Z,101431.13
2022-12-13T06:10:13.228Z,101458.81
2022-12-13T06:12:48.724Z,101461.38
2022-12-13T06:15:22.359Z,101462.25
2022-12-13T06:17:49.363Z,101418.84
2022-12-13T06:20:23.810Z,101479.38
2022-12-13T06:22:52.048Z,101462.13
2022-12-13T06:25:31.516Z,101471.66
2022-12-13T06:28:01.200Z,101469.09
2022-12-13T06:30:31.932Z,101465.63
2022-12-13T06:32:58.464Z,101429.25
2022-12-13T06:35:29.038Z,101469.84
2022-12-13T06:38:01.300Z,101469.84
2022-12-13T06:40:30.366Z,101475.94
2022-12-13T06:42:57.282Z,101454.25
2022-12-13T06:45:24.182Z,101468.97
2022-12-13T06:47:50.693Z,101472.44
2022-12-13T06:50:17.248Z,101462.06
2022-12-13T06:52:46.475Z,101474.16
2022-12-13T06:55:13.601Z,101449.00
2022-12-13T06:57:40.900Z,101479.22
2022-12-13T07:00:09.177Z,101453.31
2022-12-13T07:02:35.941Z,101492.19
2022-12-13T07:05:02.602Z,101480.09
2022-12-13T07:07:29.684Z,101480.09
2022-12-13T07:09:56.274Z,101490.44
2022-12-13T07:12:23.517Z,101483.56
2022-12-13T07:14:50.267Z,101493.06
2022-12-13T07:17:32.367Z,101494.84
2022-12-13T07:20:01.066Z,101469.69
2022-12-13T07:22:28.094Z,101485.25
2022-12-13T07:24:54.602Z,101486.09
2022-12-13T07:27:21.056Z,101491.25
2022-12-13T07:29:47.471Z,101467.03
2022-12-13T07:32:14.004Z,101488.69
2022-12-13T07:34:40.727Z,101474.81
2022-12-13T07:37:09.531Z,101469.69
2022-12-13T07:40:02.620Z,101469.66
2022-12-13T07:42:30.123Z,101499.03
2022-12-13T07:44:56.585Z,101496.38
2022-12-13T07:47:23.451Z,101505.84
2022-12-13T07:49:49.904Z,101498.88
2022-12-13T07:52:16.491Z,101509.25
2022-12-13T07:54:42.917Z,101471.16
2022-12-13T07:57:09.455Z,101510.94
2022-12-13T07:59:35.895Z,101480.66
2022-12-13T08:02:02.494Z,101503.16
2022-12-13T08:04:29.617Z,101494.44
2022-12-13T08:07:08.815Z,101469.31
2022-12-13T08:09:35.385Z,101510.88
2022-12-13T08:12:01.796Z,101475.31
2022-12-13T08:14:28.280Z,101500.44
2022-12-13T08:16:54.828Z,101465.81
2022-12-13T08:19:21.283Z,101499.59
2022-12-13T08:22:01.873Z,101510.88
2022-12-13T08:24:30.101Z,101516.88
2022-12-13T08:27:02.075Z,101458.84
2022-12-13T08:29:33.603Z,101471.88
2022-12-13T08:32:04.416Z,101484.84
2022-12-13T08:34:31.808Z,101476.25
2022-12-13T08:37:02.389Z,101540.34
2022-12-13T08:39:35.639Z,101543.81
2022-12-13T08:42:15.395Z,101521.41
2022-12-13T08:44:43.787Z,101532.75
2022-12-13T08:47:10.265Z,101498.19
2022-12-13T08:49:36.724Z,101506.88
2022-12-13T08:52:03.247Z,101525.94
2022-12-13T08:54:33.621Z,101528.63
2022-12-13T08:57:00.101Z,101499.28
2022-12-13T08:59:27.026Z,101484.53
2022-12-13T09:01:53.759Z,101527.88
2022-12-13T09:04:31.573Z,101521.78
2022-12-13T09:07:01.620Z,101482.03
2022-12-13T09:09:29.288Z,101506.34
2022-12-13T09:11:59.088Z,101511.59
2022-12-13T09:14:33.818Z,101509.00
2022-12-13T09:17:03.204Z,101530.66
2022-12-13T09:19:37.238Z,101512.50
2022-12-13T09:22:04.948Z,101522.06
2022-12-13T09:24:36.688Z,101477.16
2022-12-13T09:27:09.291Z,101485.81
2022-12-13T09:29:37.417Z,101519.66
2022-12-13T09:32:04.378Z,101512.75
2022-12-13T09:34:32.881Z,101517.16
2022-12-13T09:37:01.133Z,101492.94
2022-12-13T09:39:27.774Z,101505.09
2022-12-13T09:42:00.977Z,101512.91
2022-12-13T09:44:42.351Z,101486.16
2022-12-13T09:47:22.835Z,101483.59
2022-12-13T09:49:52.184Z,101485.34
2022-12-13T09:52:23.415Z,101489.69
2022-12-13T09:54:56.627Z,101473.28
2022-12-13T09:57:33.821Z,101503.56
2022-12-13T10:00:10.988Z,101498.38
2022-12-13T10:02:53.175Z,101491.50
2022-12-13T10:05:33.899Z,101462.13
2022-12-13T10:08:16.714Z,101488.97
2022-12-13T10:10:43.901Z,101492.44
2022-12-13T10:13:22.007Z,101488.13
2022-12-13T10:15:54.105Z,101471.72
2022-12-13T10:18:31.194Z,101464.81
2022-12-13T10:20:58.249Z,101477.78
2022-12-13T10:23:47.102Z,101479.50
2022-12-13T10:26:14.728Z,101464.81
2022-12-13T10:28:51.439Z,101482.97
2022-12-13T10:31:20.319Z,101460.53
2022-12-13T10:33:55.335Z,101474.34
2022-12-13T10:36:35.178Z,101486.47
2022-12-13T10:39:02.904Z,101484.75
2022-12-13T10:41:37.840Z,101459.66
2022-12-13T10:44:19.835Z,101478.69
2022-12-13T10:46:59.799Z,101468.31
2022-12-13T10:49:37.834Z,101470.91
2022-12-13T10:52:04.999Z,101457.06
2022-12-13T10:54:38.752Z,101436.34
2022-12-13T10:57:16.551Z,101464.84
2022-12-13T10:59:45.869Z,101434.63
2022-12-13T11:02:32.443Z,101452.75
2022-12-13T11:05:00.453Z,101472.63
2022-12-13T11:07:34.144Z,101420.81
2022-12-13T11:10:36.290Z,101467.41
2022-12-13T11:13:07.727Z,101457.91
2022-12-13T11:15:38.024Z,101465.69
2022-12-13T11:18:08.711Z,101447.53
2022-12-13T11:20:38.551Z,101442.38
2022-12-13T11:23:27.946Z,101420.78
2022-12-13T11:26:00.486Z,101439.78
2022-12-13T11:28:33.874Z,101471.72
2022-12-13T11:31:15.428Z,101438.03
2022-12-13T11:34:08.219Z,101447.50
2022-12-13T11:36:58.301Z,101442.31
2022-12-13T11:39:49.913Z,101424.16
2022-12-13T11:42:21.930Z,101423.28
2022-12-13T11:45:02.001Z,101420.69
2022-12-13T11:47:43.724Z,101428.44
2022-12-13T11:50:21.876Z,101418.09
2022-12-13T11:53:18.919Z,101406.00
2022-12-13T11:55:53.449Z,101429.31
2022-12-13T11:59:01.880Z,101406.84
2022-12-13T12:01:29.709Z,101403.41
2022-12-13T12:04:10.582Z,101403.41
2022-12-13T12:06:47.984Z,101418.94
2022-12-13T12:09:17.752Z,101402.50
2022-12-13T12:11:48.508Z,101414.59
2022-12-13T12:14:36.903Z,101423.28
2022-12-13T12:17:06.260Z,101418.94
2022-12-13T12:19:42.568Z,101380.97
2022-12-13T12:22:38.207Z,101406.81
2022-12-13T12:25:30.890Z,101413.72
2022-12-13T12:28:16.074Z,101414.53
2022-12-13T12:30:53.694Z,101408.47
2022-12-13T12:33:47.189Z,101403.28
2022-12-13T12:36:34.068Z,101405.84
2022-12-13T12:39:39.564Z,101418.78
2022-12-13T12:43:14.022Z,101411.84
2022-12-13T12:46:13.489Z,101397.19
2022-12-13T12:49:02.476Z,101416.16
2022-12-13T12:51:37.640Z,101382.50
2022-12-13T12:54:40.990Z,101415.28
2022-12-13T12:57:10.944Z,101414.38
2022-12-13T12:59:45.258Z,101403.16
2022-12-13T13:02:33.138Z,101401.41
2022-12-13T13:05:18.274Z,101391.94
2022-12-13T13:07:51.780Z,101385.84
2022-12-13T13:10:26.105Z,101379.81
2022-12-13T13:13:11.579Z,101371.19
2022-12-13T13:15:38.685Z,101383.25
2022-12-13T13:18:45.440Z,101375.47
2022-12-13T13:21:23.814Z,101383.25
2022-12-13T13:24:08.670Z,101359.09
2022-12-13T13:26:48.217Z,101381.53
2022-12-13T13:29:27.494Z,101372.84
2022-12-13T13:32:01.978Z,101356.41
2022-12-13T13:34:30.500Z,101352.06
2022-12-13T13:36:57.956Z,101320.19
2022-12-13T13:39:36.625Z,101373.59
2022-12-13T13:42:15.239Z,101372.72
2022-12-13T13:44:44.766Z,101364.97
2022-12-13T13:47:14.310Z,101362.38
2022-12-13T13:50:23.164Z,101352.84
2022-12-13T13:53:28.228Z,101361.50
2022-12-13T13:56:26.541Z,101345.09
2022-12-13T13:59:17.986Z,101344.22
2022-12-13T14:02:08.628Z,101347.69
2022-12-13T14:05:23.508Z,101324.41
2022-12-13T14:08:14.442Z,101295.13
2022-12-13T14:11:16.675Z,101335.63
2022-12-13T14:14:01.931Z,101340.00
2022-12-13T14:17:18.738Z,101321.84
2022-12-13T14:20:03.373Z,101337.38
2022-12-13T14:22:48.571Z,101308.13
2022-12-13T14:25:28.043Z,101336.63
2022-12-13T14:28:18.795Z,101340.06
2022-12-13T14:30:48.085Z,101308.19
2022-12-13T14:33:26.033Z,101327.13
2022-12-13T14:35:58.794Z,101304.66
2022-12-13T14:38:30.973Z,101308.13
2022-12-13T14:41:02.251Z,101319.31
2022-12-13T14:43:34.008Z,101323.56
2022-12-13T14:46:03.912Z,101285.63
2022-12-13T14:48:44.407Z,101320.97
2022-12-13T14:51:33.650Z,101321.88
2022-12-13T14:54:02.510Z,101314.97
2022-12-13T14:56:29.426Z,101322.78
2022-12-13T14:58:58.541Z,101301.19
2022-12-13T15:01:30.165Z,101287.38
2022-12-13T15:04:23.693Z,101316.75
2022-12-13T15:06:57.519Z,101290.06
2022-12-13T15:09:25.300Z,101273.66
2022-12-13T15:12:03.026Z,101304.69
2022-12-13T15:14:48.332Z,101276.22
2022-12-13T15:17:26.108Z,101277.94
2022-12-13T15:19:52.946Z,101269.31
2022-12-13T15:22:19.414Z,101262.41
2022-12-13T15:24:49.749Z,101270.19
2022-12-13T15:27:24.535Z,101264.97
2022-12-13T15:29:52.263Z,101276.25
2022-12-13T15:32:22.657Z,101266.69
2022-12-13T15:34:50.909Z,101258.06
2022-12-13T15:37:28.288Z,101268.41
2022-12-13T15:40:06.914Z,101265.81
2022-12-13T15:42:43.623Z,101236.53
2022-12-13T15:45:37.547Z,101264.09
2022-12-13T15:48:04.609Z,101245.16
2022-12-13T15:50:43.717Z,101249.50
2022-12-13T15:53:25.941Z,101274.53
2022-12-13T15:55:52.922Z,101247.78
2022-12-13T15:58:29.319Z,101257.28
2022-12-13T16:00:56.047Z,101248.63
2022-12-13T16:03:29.014Z,101261.56
2022-12-13T16:05:57.335Z,101239.19
2022-12-13T16:08:35.616Z,101251.22
2022-12-13T16:11:02.700Z,101277.09
2022-12-13T16:13:32.181Z,101260.69
2022-12-13T16:16:08.984Z,101259.00
2022-12-13T16:18:45.530Z,101248.66
2022-12-13T16:21:12.210Z,101255.50
2022-12-13T16:23:38.647Z,101245.13
2022-12-13T16:26:08.892Z,101232.16
2022-12-13T16:28:35.922Z,101251.16
2022-12-13T16:31:14.028Z,101213.22
2022-12-13T16:33:40.433Z,101228.69
2022-12-13T16:36:09.448Z,101226.97
2022-12-13T16:38:36.025Z,101232.16
2022-12-13T16:41:08.300Z,101239.06
2022-12-13T16:43:48.432Z,101220.06
2022-12-13T16:47:18.117Z,101208.00
2022-12-13T16:49:05.411Z,101242.53
2022-12-13T16:51:31.853Z,101249.44
2022-12-13T16:53:58.296Z,101227.03
2022-12-13T16:56:24.703Z,101225.25
2022-12-13T16:58:51.184Z,101241.59
2022-12-13T17:01:20.129Z,101229.53
2022-12-13T17:03:46.821Z,101209.63
2022-12-13T17:06:15.897Z,101223.47
2022-12-13T17:08:42.561Z,101225.13
2022-12-13T17:11:14.600Z,101214.81
2022-12-13T17:13:44.585Z,101223.47
2022-12-13T17:16:11.337Z,101239.06
2022-12-13T17:18:37.861Z,101234.72
2022-12-13T17:21:09.133Z,101204.44
2022-12-13T17:23:36.149Z,101234.59
2022-12-13T17:26:07.440Z,101226.81
2022-12-13T17:28:34.226Z,101222.47
2022-12-13T17:31:14.724Z,101161.28
2022-12-13T17:33:41.765Z,101201.84
2022-12-13T17:36:09.911Z,101210.41
2022-12-13T17:38:37.413Z,101206.19
2022-12-13T17:41:04.074Z,101218.28
2022-12-13T17:43:34.847Z,101212.22
2022-12-13T17:46:08.546Z,101216.56
2022-12-13T17:48:40.773Z,101224.34
2022-12-13T17:51:12.153Z,101228.66
2022-12-13T17:53:40.137Z,101221.72
2022-12-13T17:56:08.420Z,101206.19
2022-12-13T17:58:35.704Z,101209.69
2022-12-13T18:01:18.648Z,101234.69
2022-12-13T18:03:45.263Z,101212.22
2022-12-13T18:06:12.012Z,101207.84
2022-12-13T18:08:40.549Z,101203.56
2022-12-13T18:13:55.743Z,101195.78
2022-12-13T18:16:23.786Z,101197.53
2022-12-13T18:18:54.988Z,101210.50
2022-12-13T18:21:22.650Z,101195.78
2022-12-13T18:23:55.856Z,101178.59
2022-12-13T18:26:23.938Z,101180.28
2022-12-13T18:28:50.663Z,101195.78
2022-12-13T18:31:19.943Z,101181.97
2022-12-13T18:33:48.048Z,101182.84
2022-12-13T18:36:14.842Z,101162.13
2022-12-13T18:38:42.293Z,101165.56
2022-12-13T18:41:24.375Z,101169.03
2022-12-13T18:44:00.017Z,101164.66
2022-12-13T18:46:28.355Z,101149.16
2022-12-13T18:48:55.173Z,101169.84
2022-12-13T18:51:21.635Z,101149.97
2022-12-13T18:53:48.094Z,101150.03
2022-12-13T18:56:18.656Z,101158.63
2022-12-13T18:58:46.398Z,101159.47
2022-12-13T19:01:13.715Z,101133.63
2022-12-13T19:03:41.768Z,101158.63
2022-12-13T19:06:08.182Z,101156.91
2022-12-13T19:08:36.494Z,101162.09
2022-12-13T19:11:03.866Z,101166.41
2022-12-13T19:13:32.295Z,101155.19
2022-12-13T19:16:06.262Z,101168.09
2022-12-13T19:18:34.753Z,101162.91
2022-12-13T19:21:01.739Z,101169.84
2022-12-13T19:23:29.146Z,101169.03
2022-12-13T19:25:55.960Z,101144.97
2022-12-13T19:28:22.436Z,101172.50
2022-12-13T19:30:49.112Z,101138.91
2022-12-13T19:33:15.932Z,101133.69
2022-12-13T19:35:46.517Z,101091.53
2022-12-13T19:38:13.612Z,101083.72
2022-12-13T19:40:41.859Z,101116.41
2022-12-13T19:43:08.369Z,101136.19
2022-12-13T19:45:35.707Z,101137.03
2022-12-13T19:48:02.418Z,101130.16
2022-12-13T19:50:30.037Z,101133.56
2022-12-13T19:52:56.555Z,101129.25
2022-12-13T19:55:23.055Z,101116.28
2022-12-13T19:57:49.546Z,101105.97
2022-12-13T20:00:16.414Z,101112.03
2022-12-13T20:02:43.108Z,101097.41
2022-12-13T20:05:09.779Z,101105.94
2022-12-13T20:07:36.593Z,101086.19
2022-12-13T20:10:04.781Z,101093.00
2022-12-13T20:12:34.117Z,101105.06
2022-12-13T20:15:05.003Z,101104.13
2022-12-13T20:17:31.831Z,101093.00
2022-12-13T20:19:58.544Z,101082.63
2022-12-13T20:22:25.057Z,101071.47
2022-12-13T20:24:51.514Z,101086.81
2022-12-13T20:27:19.941Z,101075.59
2022-12-13T20:29:48.715Z,101062.72
2022-12-13T20:32:15.443Z,101096.28
2022-12-13T20:34:42.163Z,101060.97
2022-12-13T20:37:08.735Z,101091.22
2022-12-13T20:39:35.217Z,101068.69
2022-12-13T20:42:01.692Z,101064.41
2022-12-13T20:44:28.330Z,101069.59
2022-12-13T20:46:54.945Z,101072.22
2022-12-13T20:49:21.741Z,101067.94
2022-12-13T20:51:48.203Z,101061.00
2022-12-13T20:54:14.680Z,101049.84
2022-12-13T20:56:41.294Z,101058.44
2022-12-13T20:59:11.916Z,101041.16
2022-12-13T21:01:40.818Z,101039.44
2022-12-13T21:04:09.195Z,101041.09
2022-12-13T21:06:38.573Z,101041.97
2022-12-13T21:09:06.771Z,101023.84
2022-12-13T21:11:35.940Z,101024.66
2022-12-13T21:14:22.988Z,101000.59
2022-12-13T21:16:52.516Z,101021.19
2022-12-13T21:19:24.317Z,100992.78
2022-12-13T21:21:52.455Z,100991.91
2022-12-13T21:24:20.842Z,101007.25
2022-12-13T21:26:47.553Z,101011.56
2022-12-13T21:29:15.330Z,101012.38
2022-12-13T21:31:43.666Z,101015.00
2022-12-13T21:34:16.353Z,100997.81
2022-12-13T21:36:45.209Z,100997.78
2022-12-13T21:39:17.599Z,101007.25
2022-12-13T21:41:44.843Z,101012.41
2022-12-13T21:44:13.088Z,100980.53
2022-12-13T21:49:25.936Z,101007.16
2022-12-13T21:51:52.682Z,101012.28
2022-12-13T21:54:19.147Z,101013.19
2022-12-13T21:57:04.417Z,101008.84
2022-12-13T21:59:31.721Z,101001.03
2022-12-13T22:02:13.205Z,100997.72
2022-12-13T22:04:43.378Z,101001.16
2022-12-13T22:07:15.884Z,100983.94
2022-12-13T22:09:42.445Z,100986.41
2022-12-13T22:12:16.887Z,101000.16
2022-12-13T22:14:43.378Z,100980.31
2022-12-13T22:17:09.884Z,100980.34
2022-12-13T22:19:36.322Z,100970.94
2022-12-13T22:22:02.792Z,100992.41
2022-12-13T22:24:29.240Z,100946.78
2022-12-13T22:26:55.950Z,100982.88
2022-12-13T22:29:22.645Z,100944.22
2022-12-13T22:31:49.345Z,100952.78
2022-12-13T22:34:16.245Z,100969.97
2022-12-13T22:36:42.921Z,100957.91
2022-12-13T22:39:20.124Z,100961.34
2022-12-13T22:41:48.157Z,100959.56
2022-12-13T22:44:16.190Z,100907.19
2022-12-13T22:46:42.815Z,100951.91
2022-12-13T22:49:10.377Z,100950.25
2022-12-13T22:51:37.888Z,100938.97
2022-12-13T22:54:05.132Z,100947.56
2022-12-13T22:56:32.074Z,100948.44
2022-12-13T22:59:03.513Z,100931.16
2022-12-13T23:01:36.552Z,100919.06
2022-12-13T23:04:03.534Z,100915.56
2022-12-13T23:06:36.358Z,100897.56
2022-12-13T23:09:06.315Z,100928.47
2022-12-13T23:11:51.580Z,100931.00
2022-12-13T23:14:27.661Z,100929.38
2022-12-13T23:16:54.456Z,100935.53
2022-12-13T23:22:08.646Z,100914.81
2022-12-13T23:24:35.519Z,100902.78
2022-12-13T23:27:02.162Z,100923.44
2022-12-13T23:29:28.622Z,100906.22
2022-12-13T23:31:55.094Z,100918.22
2022-12-13T23:34:21.878Z,100917.44
2022-12-13T23:36:48.368Z,100916.50
2022-12-13T23:39:14.887Z,100917.31
2022-12-13T23:41:41.453Z,100910.28
2022-12-13T23:44:07.943Z,100898.19
2022-12-13T23:46:35.955Z,100900.69
2022-12-13T23:49:04.738Z,100892.94
2022-12-13T23:51:31.488Z,100898.03
2022-12-13T23:53:57.947Z,100878.31
2022-12-13T23:56:24.457Z,100850.75
2022-12-13T23:58:51.171Z,100838.81
